createdAt,value
2018-01-22T00:00:46.572Z,17.10
2018-01-22T00:02:49.933Z,17.10
2018-01-22T00:04:53.388Z,17.10
2018-01-22T00:06:57.738Z,17.00
2018-01-22T00:09:01.129Z,17.00
2018-01-22T00:11:04.696Z,17.00
2018-01-22T00:13:08.826Z,17.00
2018-01-22T00:15:12.409Z,17.00
2018-01-22T00:17:15.808Z,17.00
2018-01-22T00:19:19.430Z,17.00
2018-01-22T00:21:22.786Z,17.00
2018-01-22T00:23:26.920Z,16.90
2018-01-22T00:25:30.429Z,16.90
2018-01-22T00:27:33.805Z,16.90
2018-01-22T00:29:37.448Z,16.90
2018-01-22T00:31:40.820Z,16.90
2018-01-22T00:33:44.187Z,16.90
2018-01-22T00:35:47.751Z,16.90
2018-01-22T00:37:51.914Z,16.90
2018-01-22T00:39:55.279Z,16.90
2018-01-22T00:41:58.652Z,16.80
2018-01-22T00:44:02.776Z,16.80
2018-01-22T00:46:05.959Z,16.80
2018-01-22T00:48:09.146Z,16.80
2018-01-22T00:50:13.278Z,16.80
2018-01-22T00:52:16.649Z,16.80
2018-01-22T00:54:20.768Z,16.80
2018-01-22T00:56:24.178Z,16.80
2018-01-22T00:58:27.673Z,16.80
2018-01-22T01:00:31.088Z,16.80
2018-01-22T01:02:34.457Z,16.70
2018-01-22T01:04:37.897Z,16.70
2018-01-22T01:06:41.330Z,16.70
2018-01-22T01:08:44.691Z,16.70
2018-01-22T01:10:48.821Z,16.70
2018-01-22T01:12:52.268Z,16.70
2018-01-22T01:14:55.935Z,16.70
2018-01-22T01:16:59.313Z,16.70
2018-01-22T01:19:02.671Z,16.60
2018-01-22T01:21:06.034Z,16.60
2018-01-22T01:23:09.441Z,16.60
2018-01-22T01:25:12.870Z,16.60
2018-01-22T01:27:17.041Z,16.60
2018-01-22T01:29:20.391Z,16.60
2018-01-22T01:31:23.758Z,16.60
2018-01-22T01:33:27.915Z,16.60
2018-01-22T01:35:31.284Z,16.60
2018-01-22T01:37:34.662Z,16.60
2018-01-22T01:39:38.784Z,16.50
2018-01-22T01:41:42.141Z,16.50
2018-01-22T01:43:46.320Z,16.50
2018-01-22T01:45:49.684Z,16.50
2018-01-22T01:47:53.061Z,16.50
2018-01-22T01:49:56.418Z,16.50
2018-01-22T01:51:59.791Z,16.50
2018-01-22T01:54:03.222Z,16.50
2018-01-22T01:56:07.354Z,16.50
2018-01-22T01:58:11.685Z,16.50
2018-01-22T02:00:15.111Z,16.50
2018-01-22T02:02:18.474Z,16.50
2018-01-22T02:04:21.873Z,16.40
2018-01-22T02:06:25.221Z,16.40
2018-01-22T02:08:29.351Z,16.50
2018-01-22T02:10:32.749Z,16.40
2018-01-22T02:12:36.116Z,16.50
2018-01-22T02:14:40.269Z,16.40
2018-01-22T02:16:43.635Z,16.40
2018-01-22T02:18:47.001Z,16.40
2018-01-22T02:20:51.166Z,16.40
2018-01-22T02:22:54.538Z,16.40
2018-01-22T02:24:57.921Z,16.40
2018-01-22T02:27:01.289Z,16.40
2018-01-22T02:29:05.445Z,16.40
2018-01-22T02:31:08.842Z,16.40
2018-01-22T02:33:12.214Z,16.40
2018-01-22T02:35:15.623Z,16.30
2018-01-22T02:37:18.989Z,16.30
2018-01-22T02:39:22.358Z,16.30
2018-01-22T02:41:25.747Z,16.30
2018-01-22T02:43:29.874Z,16.30
2018-01-22T02:45:33.252Z,16.30
2018-01-22T02:47:37.384Z,16.30
2018-01-22T02:49:40.746Z,16.30
2018-01-22T02:51:44.917Z,16.30
2018-01-22T02:53:48.295Z,16.30
2018-01-22T02:55:51.661Z,16.30
2018-01-22T02:57:55.054Z,16.20
2018-01-22T02:59:58.409Z,16.30
2018-01-22T03:02:01.901Z,16.30
2018-01-22T03:04:05.321Z,16.20
2018-01-22T03:06:08.581Z,16.20
2018-01-22T03:08:11.950Z,16.20
2018-01-22T03:10:15.315Z,16.20
2018-01-22T03:12:18.706Z,16.20
2018-01-22T03:14:22.085Z,16.20
2018-01-22T03:16:26.208Z,16.20
2018-01-22T03:18:29.575Z,16.20
2018-01-22T03:20:33.717Z,16.20
2018-01-22T03:22:37.107Z,16.20
2018-01-22T03:24:40.481Z,16.20
2018-01-22T03:26:43.849Z,16.10
2018-01-22T03:28:47.214Z,16.20
2018-01-22T03:30:50.612Z,16.10
2018-01-22T03:32:54.007Z,16.10
2018-01-22T03:34:57.372Z,16.10
2018-01-22T03:37:00.735Z,16.10
2018-01-22T03:39:04.218Z,16.10
2018-01-22T03:41:08.329Z,16.10
2018-01-22T03:43:12.477Z,16.10
2018-01-22T03:45:15.832Z,16.10
2018-01-22T03:47:19.969Z,16.10
2018-01-22T03:49:23.330Z,16.10
2018-01-22T03:51:27.460Z,16.10
2018-01-22T03:53:30.852Z,16.00
2018-01-22T03:55:34.214Z,16.10
2018-01-22T03:57:37.577Z,16.00
2018-01-22T03:59:41.735Z,16.00
2018-01-22T04:01:45.117Z,16.00
2018-01-22T04:03:49.280Z,16.00
2018-01-22T04:05:52.639Z,16.00
2018-01-22T04:07:56.014Z,16.00
2018-01-22T04:10:00.178Z,16.00
2018-01-22T04:12:03.535Z,16.00
2018-01-22T04:14:06.933Z,16.00
2018-01-22T04:16:10.302Z,16.00
2018-01-22T04:18:14.447Z,16.00
2018-01-22T04:20:17.856Z,16.00
2018-01-22T04:22:21.227Z,16.10
2018-01-22T04:24:24.635Z,16.20
2018-01-22T04:26:27.987Z,16.20
2018-01-22T04:28:32.125Z,16.40
2018-01-22T04:30:35.513Z,16.40
2018-01-22T04:32:38.886Z,16.50
2018-01-22T04:34:43.044Z,16.70
2018-01-22T04:36:46.420Z,16.70
2018-01-22T04:38:49.788Z,16.80
2018-01-22T04:40:53.173Z,17.00
2018-01-22T04:42:56.309Z,17.10
2018-01-22T04:44:59.710Z,17.20
2018-01-22T04:47:03.083Z,17.30
2018-01-22T04:49:06.448Z,17.40
2018-01-22T04:51:09.834Z,17.50
2018-01-22T04:53:13.203Z,17.60
2018-01-22T04:55:17.353Z,17.80
2018-01-22T04:57:20.729Z,17.80
2018-01-22T04:59:24.118Z,17.90
2018-01-22T05:01:27.505Z,18.00
2018-01-22T05:03:31.630Z,18.20
2018-01-22T05:05:34.993Z,18.20
2018-01-22T05:07:39.118Z,18.30
2018-01-22T05:09:43.226Z,18.40
2018-01-22T05:11:47.378Z,18.50
2018-01-22T05:13:50.936Z,18.50
2018-01-22T05:15:54.336Z,18.60
2018-01-22T05:17:57.737Z,18.70
2018-01-22T05:20:01.102Z,18.80
2018-01-22T05:22:05.000Z,18.90
2018-01-22T05:24:09.119Z,19.00
2018-01-22T05:26:13.273Z,19.10
2018-01-22T05:28:17.400Z,19.20
2018-01-22T05:30:20.755Z,19.20
2018-01-22T05:32:24.410Z,19.30
2018-01-22T05:34:27.779Z,19.40
2018-01-22T05:36:31.218Z,19.50
2018-01-22T05:38:34.590Z,19.60
2018-01-22T05:40:38.028Z,19.70
2018-01-22T05:42:41.387Z,19.80
2018-01-22T05:44:45.508Z,19.90
2018-01-22T05:46:48.927Z,19.90
2018-01-22T05:48:52.347Z,20.00
2018-01-22T05:50:55.798Z,20.00
2018-01-22T05:52:59.158Z,20.00
2018-01-22T05:55:02.509Z,20.00
2018-01-22T05:57:05.720Z,20.00
2018-01-22T05:59:08.913Z,20.00
2018-01-22T06:01:12.324Z,20.00
2018-01-22T06:03:16.463Z,19.90
2018-01-22T06:05:20.829Z,19.90
2018-01-22T06:07:24.247Z,19.90
2018-01-22T06:09:28.383Z,19.90
2018-01-22T06:11:31.772Z,19.90
2018-01-22T06:13:35.141Z,19.80
2018-01-22T06:15:39.250Z,19.70
2018-01-22T06:17:43.209Z,19.60
2018-01-22T06:19:46.582Z,19.60
2018-01-22T06:21:49.789Z,19.50
2018-01-22T06:23:53.163Z,19.50
2018-01-22T06:25:56.385Z,19.40
2018-01-22T06:27:59.793Z,19.30
2018-01-22T06:30:04.100Z,19.20
2018-01-22T06:32:07.526Z,19.10
2018-01-22T06:34:11.073Z,19.10
2018-01-22T06:36:14.451Z,19.00
2018-01-22T06:38:18.009Z,18.90
2018-01-22T06:40:22.146Z,18.70
2018-01-22T06:42:25.502Z,18.70
2018-01-22T06:44:29.641Z,18.60
2018-01-22T06:46:33.027Z,18.60
2018-01-22T06:48:37.339Z,18.40
2018-01-22T06:50:40.701Z,18.40
2018-01-22T06:52:44.867Z,18.30
2018-01-22T06:54:48.435Z,18.30
2018-01-22T06:56:51.783Z,18.30
2018-01-22T06:58:55.160Z,18.20
2018-01-22T07:00:58.510Z,18.20
2018-01-22T07:03:01.898Z,18.20
2018-01-22T07:05:05.252Z,18.20
2018-01-22T07:07:08.606Z,18.10
2018-01-22T07:09:12.016Z,18.10
2018-01-22T07:11:15.550Z,18.10
2018-01-22T07:13:19.737Z,18.10
2018-01-22T07:15:23.148Z,18.10
2018-01-22T07:17:27.264Z,18.10
2018-01-22T07:19:31.413Z,18.10
2018-01-22T07:21:34.776Z,18.10
2018-01-22T07:23:39.080Z,18.10
2018-01-22T07:25:43.227Z,18.10
2018-01-22T07:27:46.582Z,18.10
2018-01-22T07:29:49.973Z,18.10
2018-01-22T07:31:54.090Z,18.20
2018-01-22T07:33:57.515Z,18.20
2018-01-22T07:36:00.871Z,18.20
2018-01-22T07:38:05.709Z,18.30
2018-01-22T07:40:09.851Z,18.30
2018-01-22T07:42:13.307Z,18.30
2018-01-22T07:44:16.686Z,18.30
2018-01-22T07:46:21.303Z,18.40
2018-01-22T07:48:25.469Z,18.40
2018-01-22T07:50:30.574Z,18.30
2018-01-22T07:52:33.941Z,18.30
2018-01-22T07:54:38.115Z,18.30
2018-01-22T07:56:41.512Z,18.30
2018-01-22T07:58:44.897Z,18.30
2018-01-22T08:00:48.327Z,18.20
2018-01-22T08:02:52.705Z,18.20
2018-01-22T08:04:56.152Z,18.20
2018-01-22T08:07:00.325Z,18.20
2018-01-22T08:09:03.478Z,18.10
2018-01-22T08:11:06.862Z,18.10
2018-01-22T08:13:10.229Z,18.10
2018-01-22T08:15:14.354Z,18.10
2018-01-22T08:17:17.788Z,18.10
2018-01-22T08:19:21.162Z,18.00
2018-01-22T08:21:24.574Z,18.00
2018-01-22T08:23:27.943Z,18.00
2018-01-22T08:25:31.296Z,18.00
2018-01-22T08:27:35.439Z,17.90
2018-01-22T08:29:38.606Z,17.80
2018-01-22T08:31:42.548Z,17.80
2018-01-22T08:33:45.905Z,17.70
2018-01-22T08:35:49.258Z,17.70
2018-01-22T08:37:53.429Z,17.80
2018-01-22T08:39:56.787Z,17.70
2018-01-22T08:42:00.955Z,17.90
2018-01-22T08:44:04.356Z,17.80
2018-01-22T08:46:08.467Z,18.00
2018-01-22T08:48:11.853Z,18.00
2018-01-22T08:50:15.230Z,18.10
2018-01-22T08:52:18.446Z,18.10
2018-01-22T08:54:21.821Z,18.20
2018-01-22T08:56:25.180Z,18.30
2018-01-22T08:58:28.587Z,18.40
2018-01-22T09:00:31.945Z,18.50
2018-01-22T09:02:35.334Z,18.60
2018-01-22T09:04:39.460Z,18.80
2018-01-22T09:06:42.818Z,18.80
2018-01-22T09:08:46.221Z,18.90
2018-01-22T09:10:50.342Z,19.00
2018-01-22T09:12:54.507Z,19.10
2018-01-22T09:14:57.891Z,19.10
2018-01-22T09:17:01.261Z,19.20
2018-01-22T09:19:04.701Z,19.30
2018-01-22T09:21:08.060Z,19.30
2018-01-22T09:23:11.407Z,19.40
2018-01-22T09:25:15.536Z,19.60
2018-01-22T09:27:18.897Z,19.60
2018-01-22T09:29:22.306Z,19.70
2018-01-22T09:31:26.435Z,19.80
2018-01-22T09:33:29.802Z,19.80
2018-01-22T09:35:33.930Z,19.90
2018-01-22T09:37:37.122Z,19.90
2018-01-22T09:39:40.516Z,20.00
2018-01-22T09:41:43.889Z,20.00
2018-01-22T09:43:48.022Z,20.00
2018-01-22T09:45:51.470Z,20.00
2018-01-22T09:47:54.836Z,20.00
2018-01-22T09:49:59.068Z,20.10
2018-01-22T09:52:02.521Z,20.00
2018-01-22T09:54:05.886Z,20.00
2018-01-22T09:56:09.300Z,20.00
2018-01-22T09:58:12.690Z,20.00
2018-01-22T10:00:16.146Z,20.00
2018-01-22T10:02:20.282Z,19.90
2018-01-22T10:04:23.664Z,19.90
2018-01-22T10:06:27.668Z,19.90
2018-01-22T10:08:31.809Z,19.80
2018-01-22T10:10:35.177Z,19.80
2018-01-22T10:12:38.598Z,19.80
2018-01-22T10:14:41.958Z,19.70
2018-01-22T10:16:46.119Z,19.60
2018-01-22T10:18:49.529Z,19.60
2018-01-22T10:20:52.895Z,19.50
2018-01-22T10:22:57.008Z,19.40
2018-01-22T10:25:01.221Z,19.30
2018-01-22T10:27:04.612Z,19.30
2018-01-22T10:29:07.972Z,19.20
2018-01-22T10:31:11.356Z,19.20
2018-01-22T10:33:14.728Z,19.10
2018-01-22T10:35:18.871Z,19.00
2018-01-22T10:37:22.288Z,19.00
2018-01-22T10:39:25.830Z,18.90
2018-01-22T10:41:30.005Z,18.80
2018-01-22T10:43:34.149Z,18.80
2018-01-22T10:45:38.281Z,18.70
2018-01-22T10:47:41.717Z,18.70
2018-01-22T10:49:45.082Z,18.70
2018-01-22T10:51:48.499Z,18.70
2018-01-22T10:53:51.968Z,18.70
2018-01-22T10:55:55.338Z,18.70
2018-01-22T10:57:58.781Z,18.60
2018-01-22T11:00:02.192Z,18.70
2018-01-22T11:02:05.554Z,18.60
2018-01-22T11:04:08.924Z,18.60
2018-01-22T11:06:12.326Z,18.60
2018-01-22T11:08:15.722Z,18.60
2018-01-22T11:10:19.115Z,18.60
2018-01-22T11:12:22.480Z,18.50
2018-01-22T11:14:25.875Z,18.60
2018-01-22T11:16:29.240Z,18.50
2018-01-22T11:18:32.618Z,18.60
2018-01-22T11:20:35.984Z,18.60
2018-01-22T11:22:40.099Z,18.50
2018-01-22T11:24:43.478Z,18.50
2018-01-22T11:26:46.820Z,18.50
2018-01-22T11:28:51.000Z,18.50
2018-01-22T11:30:54.358Z,18.50
2018-01-22T11:32:57.756Z,18.50
2018-01-22T11:35:01.112Z,18.50
2018-01-22T11:37:05.236Z,18.50
2018-01-22T11:39:08.616Z,18.50
2018-01-22T11:41:12.940Z,18.50
2018-01-22T11:43:16.322Z,18.50
2018-01-22T11:45:19.673Z,18.60
2018-01-22T11:47:23.064Z,18.60
2018-01-22T11:49:26.453Z,18.70
2018-01-22T11:51:29.813Z,18.70
2018-01-22T11:53:33.178Z,18.80
2018-01-22T11:55:37.300Z,18.90
2018-01-22T11:57:41.415Z,19.00
2018-01-22T11:59:44.789Z,19.00
2018-01-22T12:01:48.909Z,19.20
2018-01-22T12:03:52.305Z,19.20
2018-01-22T12:05:55.661Z,19.20
2018-01-22T12:07:59.053Z,19.30
2018-01-22T12:10:02.467Z,19.40
2018-01-22T12:12:06.438Z,19.50
2018-01-22T12:14:09.894Z,19.50
2018-01-22T12:16:13.361Z,19.60
2018-01-22T12:18:17.496Z,19.70
2018-01-22T12:20:20.944Z,19.70
2018-01-22T12:22:24.329Z,19.70
2018-01-22T12:24:27.696Z,19.70
2018-01-22T12:26:31.076Z,19.80
2018-01-22T12:28:34.626Z,19.70
2018-01-22T12:30:38.019Z,19.80
2018-01-22T12:32:42.172Z,19.80
2018-01-22T12:34:45.558Z,19.70
2018-01-22T12:36:48.942Z,19.70
2018-01-22T12:38:52.301Z,19.70
2018-01-22T12:40:56.518Z,19.70
2018-01-22T12:42:59.891Z,19.70
2018-01-22T12:45:03.239Z,19.70
2018-01-22T12:47:06.618Z,19.70
2018-01-22T12:49:09.997Z,19.70
2018-01-22T12:51:14.173Z,19.60
2018-01-22T12:53:17.589Z,19.60
2018-01-22T12:55:21.008Z,19.60
2018-01-22T12:57:24.403Z,19.60
2018-01-22T12:59:28.535Z,19.50
2018-01-22T13:01:31.983Z,19.50
2018-01-22T13:03:36.120Z,19.50
2018-01-22T13:05:39.494Z,19.50
2018-01-22T13:07:43.654Z,19.40
2018-01-22T13:09:47.043Z,19.40
2018-01-22T13:11:50.440Z,19.40
2018-01-22T13:13:53.827Z,19.40
2018-01-22T13:15:57.197Z,19.40
2018-01-22T13:18:00.729Z,19.30
2018-01-22T13:20:04.116Z,19.40
2018-01-22T13:22:07.560Z,19.30
2018-01-22T13:24:10.944Z,19.30
2018-01-22T13:26:15.091Z,19.20
2018-01-22T13:28:18.490Z,19.20
2018-01-22T13:30:21.853Z,19.20
2018-01-22T13:32:25.206Z,19.20
2018-01-22T13:34:28.567Z,19.10
2018-01-22T13:36:31.936Z,19.10
2018-01-22T13:38:35.343Z,19.10
2018-01-22T13:40:44.157Z,19.10
2018-01-22T13:42:47.523Z,19.00
2018-01-22T13:44:51.710Z,19.00
2018-01-22T13:46:55.858Z,19.00
2018-01-22T13:48:59.109Z,19.00
2018-01-22T13:51:02.539Z,19.00
2018-01-22T13:53:05.921Z,19.00
2018-01-22T13:55:09.322Z,19.00
2018-01-22T13:57:12.700Z,19.00
2018-01-22T13:59:16.123Z,18.90
2018-01-22T14:01:19.481Z,18.90
2018-01-22T14:03:23.614Z,18.90
2018-01-22T14:05:27.325Z,18.90
2018-01-22T14:07:30.729Z,18.90
2018-01-22T14:09:34.146Z,18.80
2018-01-22T14:11:37.538Z,18.90
2018-01-22T14:13:40.944Z,18.80
2018-01-22T14:15:44.954Z,18.80
2018-01-22T14:17:48.529Z,18.80
2018-01-22T14:19:51.946Z,18.80
2018-01-22T14:21:55.810Z,18.80
2018-01-22T14:23:59.290Z,18.80
2018-01-22T14:26:02.783Z,18.80
2018-01-22T14:28:06.178Z,18.70
2018-01-22T14:30:09.577Z,18.70
2018-01-22T14:32:12.956Z,18.70
2018-01-22T14:34:16.316Z,18.70
2018-01-22T14:36:19.746Z,18.70
2018-01-22T14:38:23.104Z,18.70
2018-01-22T14:40:27.264Z,18.70
2018-01-22T14:42:30.641Z,18.70
2018-01-22T14:44:34.048Z,18.80
2018-01-22T14:46:37.514Z,18.80
2018-01-22T14:48:40.879Z,18.80
2018-01-22T14:50:44.328Z,18.80
2018-01-22T14:52:47.767Z,18.80
2018-01-22T14:54:51.133Z,18.90
2018-01-22T14:56:54.553Z,19.00
2018-01-22T14:58:58.744Z,19.10
2018-01-22T15:01:02.164Z,19.10
2018-01-22T15:03:05.538Z,19.10
2018-01-22T15:05:08.922Z,19.20
2018-01-22T15:07:12.388Z,19.20
2018-01-22T15:09:15.793Z,19.30
2018-01-22T15:11:19.175Z,19.40
2018-01-22T15:13:23.334Z,19.40
2018-01-22T15:15:27.165Z,19.40
2018-01-22T15:17:30.582Z,19.50
2018-01-22T15:19:33.955Z,19.50
2018-01-22T15:21:37.370Z,19.50
2018-01-22T15:23:40.731Z,19.50
2018-01-22T15:25:44.256Z,19.50
2018-01-22T15:27:47.782Z,19.50
2018-01-22T15:29:51.366Z,19.50
2018-01-22T15:31:54.962Z,19.50
2018-01-22T15:33:58.686Z,19.50
2018-01-22T15:36:02.097Z,19.50
2018-01-22T15:38:05.455Z,19.50
2018-01-22T15:40:09.009Z,19.50
2018-01-22T15:42:12.419Z,19.50
2018-01-22T15:44:15.778Z,19.40
2018-01-22T15:46:19.159Z,19.40
2018-01-22T15:48:22.524Z,19.40
2018-01-22T15:50:25.901Z,19.40
2018-01-22T15:52:29.563Z,19.40
2018-01-22T15:54:33.051Z,19.40
2018-01-22T15:56:36.447Z,19.40
2018-01-22T15:58:39.681Z,19.40
2018-01-22T16:00:43.073Z,19.40
2018-01-22T16:02:46.536Z,19.40
2018-01-22T16:04:50.001Z,19.30
2018-01-22T16:06:53.385Z,19.30
2018-01-22T16:08:57.598Z,19.30
2018-01-22T16:11:01.751Z,19.20
2018-01-22T16:13:05.586Z,19.30
2018-01-22T16:15:09.631Z,19.30
2018-01-22T16:17:13.034Z,19.20
2018-01-22T16:19:16.388Z,19.30
2018-01-22T16:21:20.550Z,19.20
2018-01-22T16:23:24.031Z,19.20
2018-01-22T16:25:27.404Z,19.20
2018-01-22T16:27:30.780Z,19.20
2018-01-22T16:29:34.949Z,19.20
2018-01-22T16:31:38.327Z,19.20
2018-01-22T16:33:41.999Z,19.20
2018-01-22T16:35:45.371Z,19.20
2018-01-22T16:37:48.851Z,19.20
2018-01-22T16:39:52.225Z,19.20
2018-01-22T16:41:57.533Z,19.20
2018-01-22T16:44:00.966Z,19.10
2018-01-22T16:46:04.926Z,19.10
2018-01-22T16:48:08.343Z,19.10
2018-01-22T16:50:12.463Z,19.10
2018-01-22T16:52:16.052Z,19.00
2018-01-22T16:54:19.562Z,19.00
2018-01-22T16:56:23.018Z,19.00
2018-01-22T16:58:26.378Z,19.00
2018-01-22T17:00:29.776Z,19.00
2018-01-22T17:02:34.037Z,19.00
2018-01-22T17:04:37.499Z,19.00
2018-01-22T17:06:40.876Z,19.00
2018-01-22T17:08:45.013Z,19.00
2018-01-22T17:10:48.672Z,18.90
2018-01-22T17:12:52.847Z,19.00
2018-01-22T17:14:56.223Z,18.90
2018-01-22T17:16:59.583Z,18.90
2018-01-22T17:19:03.726Z,18.90
2018-01-22T17:21:07.083Z,18.90
2018-01-22T17:23:10.476Z,18.90
2018-01-22T17:25:13.922Z,18.90
2018-01-22T17:27:17.338Z,18.90
2018-01-22T17:29:20.844Z,18.90
2018-01-22T17:31:24.284Z,18.90
2018-01-22T17:33:27.652Z,18.90
2018-01-22T17:35:31.071Z,18.90
2018-01-22T17:37:34.502Z,19.00
2018-01-22T17:39:37.938Z,19.00
2018-01-22T17:41:41.694Z,19.00
2018-01-22T17:43:45.148Z,19.00
2018-01-22T17:45:49.259Z,19.00
2018-01-22T17:47:53.515Z,19.00
2018-01-22T17:49:57.024Z,19.10
2018-01-22T17:52:01.818Z,19.10
2018-01-22T17:54:05.489Z,19.10
2018-01-22T17:56:11.127Z,19.20
2018-01-22T17:58:15.556Z,19.20
2018-01-22T18:00:19.935Z,19.20
2018-01-22T18:02:25.313Z,19.20
2018-01-22T18:04:28.897Z,19.20
2018-01-22T18:06:32.290Z,19.30
2018-01-22T18:08:35.680Z,19.30
2018-01-22T18:10:39.215Z,19.30
2018-01-22T18:12:43.029Z,19.30
2018-01-22T18:14:46.628Z,19.30
2018-01-22T18:16:50.679Z,19.30
2018-01-22T18:18:54.156Z,19.40
2018-01-22T18:20:57.527Z,19.40
2018-01-22T18:23:01.493Z,19.40
2018-01-22T18:25:04.663Z,19.40
2018-01-22T18:27:08.014Z,19.30
2018-01-22T18:29:12.247Z,19.30
2018-01-22T18:31:15.844Z,19.30
2018-01-22T18:33:19.991Z,19.30
2018-01-22T18:35:23.683Z,19.30
2018-01-22T18:37:27.191Z,19.30
2018-01-22T18:39:30.550Z,19.40
2018-01-22T18:41:34.019Z,19.40
2018-01-22T18:43:38.159Z,19.40
2018-01-22T18:45:41.627Z,19.40
2018-01-22T18:47:44.978Z,19.30
2018-01-22T18:49:48.375Z,19.40
2018-01-22T18:51:51.755Z,19.30
2018-01-22T18:53:55.253Z,19.30
2018-01-22T18:55:59.684Z,19.30
2018-01-22T18:58:03.612Z,19.30
2018-01-22T19:00:07.020Z,19.30
2018-01-22T19:02:11.443Z,19.30
2018-01-22T19:04:15.929Z,19.30
2018-01-22T19:06:19.333Z,19.30
2018-01-22T19:08:22.891Z,19.30
2018-01-22T19:10:27.104Z,19.30
2018-01-22T19:12:31.292Z,19.30
2018-01-22T19:14:35.373Z,19.30
2018-01-22T19:16:38.830Z,19.20
2018-01-22T19:18:42.199Z,19.20
2018-01-22T19:20:45.594Z,19.20
2018-01-22T19:22:48.949Z,19.20
2018-01-22T19:24:52.330Z,19.20
2018-01-22T19:26:56.608Z,19.20
2018-01-22T19:29:00.164Z,19.20
2018-01-22T19:31:04.155Z,19.20
2018-01-22T19:33:08.656Z,19.20
2018-01-22T19:35:13.027Z,19.20
2018-01-22T19:37:18.739Z,19.20
2018-01-22T19:39:22.868Z,19.20
2018-01-22T19:41:28.013Z,19.20
2018-01-22T19:43:32.984Z,19.30
2018-01-22T19:45:37.543Z,19.30
2018-01-22T19:47:41.015Z,19.30
2018-01-22T19:49:46.076Z,19.40
2018-01-22T19:51:49.508Z,19.30
2018-01-22T19:53:52.860Z,19.40
2018-01-22T19:55:56.465Z,19.40
2018-01-22T19:58:00.628Z,19.40
2018-01-22T20:00:04.106Z,19.40
2018-01-22T20:02:07.459Z,19.40
2018-01-22T20:04:10.813Z,19.40
2018-01-22T20:06:14.158Z,19.40
2018-01-22T20:08:17.549Z,19.40
2018-01-22T20:10:20.924Z,19.40
2018-01-22T20:12:24.410Z,19.40
2018-01-22T20:14:27.882Z,19.40
2018-01-22T20:16:32.089Z,19.40
2018-01-22T20:18:36.242Z,19.40
2018-01-22T20:20:39.633Z,19.40
2018-01-22T20:22:43.025Z,19.40
2018-01-22T20:24:46.404Z,19.40
2018-01-22T20:26:49.767Z,19.40
2018-01-22T20:28:54.015Z,19.40
2018-01-22T20:30:57.399Z,19.40
2018-01-22T20:33:00.389Z,19.40
2018-01-22T20:35:03.753Z,19.40
2018-01-22T20:37:07.140Z,19.40
2018-01-22T20:39:11.288Z,19.40
2018-01-22T20:41:14.678Z,19.40
2018-01-22T20:43:18.048Z,19.40
2018-01-22T20:45:22.204Z,19.40
2018-01-22T20:47:25.645Z,19.40
2018-01-22T20:49:29.801Z,19.30
2018-01-22T20:51:33.173Z,19.30
2018-01-22T20:53:36.554Z,19.30
2018-01-22T20:55:40.172Z,19.30
2018-01-22T20:57:43.665Z,19.20
2018-01-22T20:59:47.233Z,19.20
2018-01-22T21:01:51.510Z,19.20
2018-01-22T21:03:54.869Z,19.20
2018-01-22T21:05:58.268Z,19.10
2018-01-22T21:08:02.061Z,19.10
2018-01-22T21:10:06.490Z,19.00
2018-01-22T21:12:09.862Z,19.00
2018-01-22T21:14:13.264Z,18.90
2018-01-22T21:16:16.647Z,18.90
2018-01-22T21:18:20.015Z,18.80
2018-01-22T21:20:23.783Z,18.80
2018-01-22T21:22:27.147Z,18.70
2018-01-22T21:24:30.568Z,18.70
2018-01-22T21:26:33.957Z,18.60
2018-01-22T21:28:37.325Z,18.60
2018-01-22T21:30:40.723Z,18.60
2018-01-22T21:32:44.174Z,18.60
2018-01-22T21:34:47.642Z,18.50
2018-01-22T21:36:51.025Z,18.50
2018-01-22T21:38:54.404Z,18.50
2018-01-22T21:40:57.811Z,18.50
2018-01-22T21:43:01.185Z,18.40
2018-01-22T21:45:04.650Z,18.40
2018-01-22T21:47:08.044Z,18.40
2018-01-22T21:49:11.414Z,18.30
2018-01-22T21:51:14.797Z,18.30
2018-01-22T21:53:18.947Z,18.20
2018-01-22T21:55:22.341Z,18.20
2018-01-22T21:57:25.737Z,18.20
2018-01-22T21:59:29.297Z,18.10
2018-01-22T22:01:32.726Z,18.10
2018-01-22T22:03:36.098Z,18.10
2018-01-22T22:05:39.462Z,18.10
2018-01-22T22:07:43.644Z,18.00
2018-01-22T22:09:47.022Z,18.00
2018-01-22T22:11:50.418Z,18.00
2018-01-22T22:13:53.793Z,18.00
2018-01-22T22:15:57.157Z,18.00
2018-01-22T22:18:00.570Z,17.90
2018-01-22T22:20:03.930Z,17.90
2018-01-22T22:22:07.319Z,17.90
2018-01-22T22:24:11.447Z,17.90
2018-01-22T22:26:14.816Z,17.80
2018-01-22T22:28:18.994Z,17.80
2018-01-22T22:30:22.352Z,17.80
2018-01-22T22:32:25.714Z,17.80
2018-01-22T22:34:29.072Z,17.80
2018-01-22T22:36:32.451Z,17.80
2018-01-22T22:38:35.929Z,17.70
2018-01-22T22:40:39.300Z,17.70
2018-01-22T22:42:42.686Z,17.70
2018-01-22T22:44:47.081Z,17.70
2018-01-22T22:46:50.576Z,17.70
2018-01-22T22:48:53.976Z,17.70
2018-01-22T22:50:58.101Z,17.60
2018-01-22T22:53:01.452Z,17.60
2018-01-22T22:55:06.147Z,17.60
2018-01-22T22:57:09.623Z,17.60
2018-01-22T22:59:13.621Z,17.60
2018-01-22T23:01:16.993Z,17.60
2018-01-22T23:03:20.353Z,17.60
2018-01-22T23:05:23.730Z,17.50
2018-01-22T23:07:27.521Z,17.50
2018-01-22T23:09:30.976Z,17.50
2018-01-22T23:11:35.108Z,17.50
2018-01-22T23:13:39.000Z,17.40
2018-01-22T23:15:44.685Z,17.40
2018-01-22T23:17:49.439Z,17.40
2018-01-22T23:19:53.101Z,17.40
2018-01-22T23:21:56.632Z,17.40
2018-01-22T23:24:00.036Z,17.40
2018-01-22T23:26:03.388Z,17.40
2018-01-22T23:28:06.773Z,17.30
2018-01-22T23:30:10.242Z,17.30
2018-01-22T23:32:13.599Z,17.30
2018-01-22T23:34:16.962Z,17.30
2018-01-22T23:36:20.351Z,17.30
2018-01-22T23:38:23.709Z,17.30
2018-01-22T23:40:27.093Z,17.30
2018-01-22T23:42:31.276Z,17.20
2018-01-22T23:44:34.778Z,17.20
2018-01-22T23:46:38.521Z,17.20
2018-01-22T23:48:41.895Z,17.20
2018-01-22T23:50:46.061Z,17.20
2018-01-22T23:52:50.095Z,17.20
2018-01-22T23:54:53.509Z,17.20
2018-01-22T23:56:56.984Z,17.20
2018-01-22T23:59:01.337Z,17.20
